M I D A S
Marine Information and Data Acquisition System
Tripno 2230 of the Zeeleeuw from 2011-08-17 06:11:50 to 2011-08-17 14:39:30
Back to CruiseResearch ActivitiesStationsMapUnderway DataData graphs

EquipmentUnitsComments
TimeDGPSUTC
LatitudeDGPSDM.mWGS84
LongitudeDGPSDM.mWGS84
SpeedMeteo Stationm/sRelative wind speed
DirectionMeteo StationdegRelative wind direction
TemperatureMeteo Stationdeg CelciusAir temperature
PressureMeteo StationPaAtmospheric pressure
HumidityMeteo Station%Relative humidity
Missing or incorrect values are displayed as -999
Metereological data collected by the RV Zeeleeuw from 2011-08-17 06:15:54 to 2011-08-17 14:50:24
Time Latitude Longitude Speed Direction Temperature Pressure Humidity
2011-08-17 06:17 51°13.643 2°55.987 -999 30 15.4 101600 48
2011-08-17 06:18 51°13.658 2°55.923 0.8 44 15.4 101600 47
2011-08-17 06:19 51°13.684 2°55.821 1.7 19 15.4 101600 48
2011-08-17 06:20 51°13.695 2°55.755 1.8 38 15.5 101600 48
2011-08-17 06:21 51°13.714 2°55.787 0.2 26 15.4 101600 48
2011-08-17 06:22 51°13.709 2°55.782 0.2 25 15.4 101600 49
2011-08-17 06:23 51°13.762 2°55.71 2.8 28 15.5 101600 47
2011-08-17 06:24 51°13.866 2°55.603 3.9 327 15.5 101600 47
2011-08-17 06:25 51°13.992 2°55.512 3.1 318 15.5 101600 49
2011-08-17 06:26 51°14.119 2°55.416 3.3 326 15.5 101600 49
2011-08-17 06:27 51°14.246 2°55.312 4.9 324 15.6 101600 48
2011-08-17 06:28 51°14.374 2°55.191 4.4 22 15.6 101600 49
2011-08-17 06:29 51°14.5 2°55.065 4.7 27 15.7 101600 49
2011-08-17 06:30 51°14.627 2°54.907 6 26 15.8 101600 49
2011-08-17 06:30 51°14.775 2°54.721 5.7 28 15.8 101600 48
2011-08-17 06:31 51°14.93 2°54.528 5.3 26 15.8 101600 48
2011-08-17 06:33 51°15.112 2°54.412 3.5 21 15.8 101600 48
2011-08-17 06:33 51°15.296 2°54.361 3.1 28 15.8 101600 48
2011-08-17 06:35 51°15.487 2°54.34 3.2 24 15.8 101610 48
2011-08-17 06:36 51°15.675 2°54.319 4.2 28 15.9 101610 48
2011-08-17 06:37 51°15.863 2°54.304 2.7 23 15.9 101610 48
2011-08-17 06:38 51°16.038 2°54.304 0.1 24 15.9 101610 48
2011-08-17 06:39 51°16.137 2°54.328 -999 262 16 101610 48
2011-08-17 06:40 51°16.201 2°54.3 -999 25 16 101610 48
2011-08-17 06:41 51°16.24 2°54.284 2.5 19 16 101610 48
2011-08-17 06:42 51°16.255 2°54.278 1.6 28 16.1 101620 48
2011-08-17 06:43 51°16.266 2°54.267 2.6 22 16.2 101610 48
2011-08-17 06:44 51°16.275 2°54.254 2.8 25 16.1 101610 48
2011-08-17 06:44 51°16.281 2°54.239 3.1 28 16 101610 48
2011-08-17 06:46 51°16.287 2°54.222 3.7 20 16.1 101620 49
2011-08-17 06:47 51°16.29 2°54.204 3.5 21 16.1 101620 48
2011-08-17 06:48 51°16.293 2°54.185 3.1 23 16 101620 49
2011-08-17 06:49 51°16.301 2°54.164 3.2 22 16.1 101620 48
2011-08-17 06:50 51°16.336 2°54.182 2.2 30 16.1 101620 49
2011-08-17 06:51 51°16.317 2°54.244 4.3 -999 16.1 101620 49
2011-08-17 06:52 51°16.266 2°54.261 4.2 356 16 101610 47
2011-08-17 06:53 51°16.243 2°54.259 3.9 359 16 101620 49
2011-08-17 06:54 51°16.23 2°54.25 3.7 357 16.1 101610 48
2011-08-17 06:55 51°16.219 2°54.238 3.7 355 16.1 101620 48
2011-08-17 06:56 51°16.209 2°54.225 3.8 357 16.1 101620 49
2011-08-17 06:57 51°16.2 2°54.21 3 2 16.1 101620 48
2011-08-17 06:58 51°16.192 2°54.195 3.6 1 16.1 101610 49
2011-08-17 06:59 51°16.185 2°54.179 3.3 358 16 101620 48
2011-08-17 07:00 51°16.178 2°54.163 3.6 -999 16 101620 48
2011-08-17 07:01 51°16.171 2°54.147 2.8 2 16 101620 49
2011-08-17 07:02 51°16.163 2°54.13 3.3 360 16 101620 48
2011-08-17 07:02 51°16.157 2°54.114 3.1 357 16.1 101620 49
2011-08-17 07:04 51°16.15 2°54.097 3.4 358 16.1 101630 48
2011-08-17 07:05 51°16.143 2°54.079 3.5 358 16.1 101630 48
2011-08-17 07:06 51°16.136 2°54.064 3.5 359 16.1 101630 49
2011-08-17 07:07 51°16.13 2°54.047 3.1 3 16.1 101620 48
2011-08-17 07:08 51°16.123 2°54.031 2.9 2 16.1 101630 48
2011-08-17 07:09 51°16.117 2°54.015 3.5 2 16.1 101630 49
2011-08-17 07:09 51°16.11 2°53.998 3.2 5 16.1 101630 48
2011-08-17 07:11 51°16.103 2°53.981 3.1 6 16.1 101640 48
2011-08-17 07:12 51°16.096 2°53.964 3.2 6 16.1 101640 48
2011-08-17 07:13 51°16.077 2°53.96 3.7 14 16.1 101630 49
2011-08-17 07:14 51°16.081 2°54.019 0.2 29 16.2 101640 49
2011-08-17 07:15 51°16.154 2°53.979 5.2 24 16.2 101640 48
2011-08-17 07:16 51°16.308 2°53.812 7.5 24 16.2 101630 48
2011-08-17 07:17 51°16.477 2°53.61 7.2 22 16.3 101630 49
2011-08-17 07:18 51°16.649 2°53.415 6.8 27 16.4 101640 49
2011-08-17 07:18 51°16.811 2°53.205 7.7 24 16.4 101640 48
2011-08-17 07:20 51°16.971 2°52.99 7.5 29 16.4 101630 48
2011-08-17 07:21 51°17.136 2°52.783 6.2 29 16.4 101640 49
2011-08-17 07:21 51°17.3 2°52.581 5.5 27 16.5 101630 48
2011-08-17 07:23 51°17.463 2°52.359 5.6 21 16.5 101630 49
2011-08-17 07:24 51°17.627 2°52.148 5.7 21 16.6 101630 48
2011-08-17 07:25 51°17.777 2°51.911 6.3 27 16.6 101630 49
2011-08-17 07:26 51°17.929 2°51.675 6.6 22 16.6 101630 48
2011-08-17 07:27 51°18.093 2°51.46 6.3 19 16.7 101630 48
2011-08-17 07:28 51°18.247 2°51.22 6 23 16.7 101630 48
2011-08-17 07:29 51°18.392 2°51.063 3.9 22 16.8 101630 49
2011-08-17 07:29 51°18.474 2°51.024 -999 254 16.9 101640 48
2011-08-17 07:31 51°18.511 2°51.014 1.2 268 16.9 101640 48
2011-08-17 07:32 51°18.525 2°50.991 -999 259 17 101640 48
2011-08-17 07:33 51°18.533 2°50.965 -999 252 17 101640 48
2011-08-17 07:34 51°18.538 2°50.938 -999 255 17.1 101640 48
2011-08-17 07:35 51°18.54 2°50.913 -999 255 17 101640 48
2011-08-17 07:36 51°18.541 2°50.888 -999 250 17 101640 48
2011-08-17 07:36 51°18.54 2°50.864 -999 254 17.1 101640 48
2011-08-17 07:38 51°18.537 2°50.841 -999 254 17.2 101630 48
2011-08-17 07:39 51°18.534 2°50.82 -999 254 17.2 101630 48
2011-08-17 07:40 51°18.531 2°50.799 -999 257 17.2 101630 48
2011-08-17 07:41 51°18.527 2°50.778 -999 256 17.2 101630 48
2011-08-17 07:42 51°18.522 2°50.758 -999 261 17.2 101630 48
2011-08-17 07:43 51°18.518 2°50.739 -999 260 17.3 101630 48
2011-08-17 07:44 51°18.512 2°50.72 0.5 262 17.4 101640 49
2011-08-17 07:45 51°18.506 2°50.702 0.8 266 17.3 101640 48
2011-08-17 07:46 51°18.499 2°50.684 1.8 260 17.4 101640 49
2011-08-17 07:47 51°18.492 2°50.665 0.7 265 17.4 101640 48
2011-08-17 07:48 51°18.484 2°50.648 1.3 268 17.4 101640 49
2011-08-17 07:49 51°18.476 2°50.63 1.8 21 17.4 101640 48
2011-08-17 07:50 51°18.467 2°50.611 1.9 27 17.4 101640 48
2011-08-17 07:51 51°18.459 2°50.594 1.3 29 17.4 101650 47
2011-08-17 07:52 51°18.45 2°50.576 2 21 17.4 101640 48
2011-08-17 07:53 51°18.442 2°50.558 2.5 21 17.4 101640 47
2011-08-17 07:54 51°18.433 2°50.54 1.8 20 17.4 101650 47
2011-08-17 07:55 51°18.424 2°50.522 2.4 28 17.4 101650 48
2011-08-17 07:56 51°18.416 2°50.504 -999 25 17.5 101650 47
2011-08-17 07:57 51°18.408 2°50.486 -999 24 17.5 101650 47
2011-08-17 07:58 51°18.396 2°50.466 -999 25 17.4 101650 47
2011-08-17 07:59 51°18.392 2°50.45 -999 25 17.4 101650 47
2011-08-17 08:00 51°18.39 2°50.436 -999 25 17.5 101650 47
2011-08-17 08:01 51°18.419 2°50.534 -999 348 17.6 101660 47
2011-08-17 08:02 51°18.482 2°50.787 4.3 339 17.6 101650 47
2011-08-17 08:03 51°18.519 2°51.085 4.1 338 17.6 101650 47
2011-08-17 08:04 51°18.573 2°51.375 4 335 17.6 101660 46
2011-08-17 08:05 51°18.627 2°51.666 4.3 344 17.7 101650 47
2011-08-17 08:06 51°18.675 2°51.962 4.6 347 17.7 101650 48
2011-08-17 08:07 51°18.709 2°52.26 5 346 17.6 101660 47
2011-08-17 08:08 51°18.759 2°52.553 4.7 346 17.5 101660 47
2011-08-17 08:09 51°18.801 2°52.849 4.3 345 17.5 101660 48
2011-08-17 08:10 51°18.844 2°53.144 4 345 17.4 101660 47
2011-08-17 08:11 51°18.903 2°53.429 4.2 342 17.4 101660 47
2011-08-17 08:12 51°18.942 2°53.724 3.7 343 17.3 101660 48
2011-08-17 08:13 51°18.993 2°54.014 3.6 342 17.3 101670 49
2011-08-17 08:14 51°19.044 2°54.302 3.7 344 17.3 101670 48
2011-08-17 08:15 51°19.082 2°54.597 4.3 346 17.3 101660 47
2011-08-17 08:16 51°19.144 2°54.88 3.3 341 17.4 101670 49
2011-08-17 08:17 51°19.202 2°55.167 4.1 339 17.3 101670 49
2011-08-17 08:18 51°19.261 2°55.45 3.3 340 17.4 101660 48
2011-08-17 08:19 51°19.339 2°55.72 3.3 341 17.4 101670 49
2011-08-17 08:20 51°19.404 2°56 2.9 340 17.5 101670 48
2011-08-17 08:21 51°19.479 2°56.271 0.7 336 17.4 101670 47
2011-08-17 08:22 51°19.565 2°56.533 2.5 333 17.5 101670 48
2011-08-17 08:23 51°19.645 2°56.792 2.3 333 17.5 101660 48
2011-08-17 08:24 51°19.706 2°57.059 2.6 336 17.5 101670 49
2011-08-17 08:25 51°19.762 2°57.327 2 338 17.6 101670 49
2011-08-17 08:26 51°19.834 2°57.585 2.9 334 17.5 101670 47
2011-08-17 08:27 51°19.895 2°57.85 2.6 337 17.6 101660 49
2011-08-17 08:28 51°19.962 2°58.11 2.9 340 17.6 101670 47
2011-08-17 08:29 51°20.034 2°58.365 2.2 343 17.6 101670 47
2011-08-17 08:30 51°20.094 2°58.629 2.5 348 17.5 101670 48
2011-08-17 08:31 51°20.157 2°58.891 2.2 350 17.5 101670 48
2011-08-17 08:32 51°20.214 2°59.155 2.2 350 17.5 101670 47
2011-08-17 08:33 51°20.273 2°59.416 2.5 346 17.5 101670 49
2011-08-17 08:34 51°20.32 2°59.68 2.5 346 17.6 101670 48
2011-08-17 08:35 51°20.376 2°59.94 3.3 342 17.5 101670 49
2011-08-17 08:36 51°20.399 3°0.215 2.7 344 17.5 101670 49
2011-08-17 08:37 51°20.426 3°0.488 2.6 337 17.5 101670 48
2011-08-17 08:37 51°20.47 3°0.749 2.1 342 17.5 101670 49
2011-08-17 08:39 51°20.51 3°1.025 3.7 348 17.5 101670 49
2011-08-17 08:40 51°20.536 3°1.302 3.9 349 17.5 101670 49
2011-08-17 08:41 51°20.571 3°1.581 4.4 352 17.4 101670 48
2011-08-17 08:42 51°20.591 3°1.862 3.6 352 17.3 101670 48
2011-08-17 08:43 51°20.614 3°2.138 3.3 347 17.3 101670 49
2011-08-17 08:44 51°20.649 3°2.368 1.8 354 17.2 101670 49
2011-08-17 08:44 51°20.674 3°2.522 1.4 28 17.2 101670 49
2011-08-17 08:46 51°20.691 3°2.579 0.5 29 17.3 101670 49
2011-08-17 08:47 51°20.713 3°2.575 3.2 28 17.3 101680 48
2011-08-17 08:48 51°20.712 3°2.537 4.1 21 17.2 101680 48
2011-08-17 08:49 51°20.711 3°2.495 2.9 27 17.2 101680 48
2011-08-17 08:50 51°20.707 3°2.453 3.8 22 17.2 101670 49
2011-08-17 08:51 51°20.702 3°2.41 4.2 30 17.3 101670 49
2011-08-17 08:52 51°20.695 3°2.368 3.4 23 17.3 101670 48
2011-08-17 08:53 51°20.688 3°2.327 3.8 28 17.3 101670 49
2011-08-17 08:54 51°20.679 3°2.287 2.2 23 17.3 101670 48
2011-08-17 08:55 51°20.671 3°2.248 3.6 23 17.4 101670 49
2011-08-17 08:55 51°20.662 3°2.211 3.5 22 17.4 101670 49
2011-08-17 08:57 51°20.651 3°2.173 3.3 29 17.3 101680 49
2011-08-17 08:58 51°20.64 3°2.137 3.8 30 17.3 101680 49
2011-08-17 08:59 51°20.632 3°2.102 3.3 29 17.4 101680 49
2011-08-17 09:00 51°20.647 3°2.17 2.3 14 17.4 101680 49
2011-08-17 09:01 51°20.682 3°2.352 2.2 355 17.4 101680 49
2011-08-17 09:02 51°20.729 3°2.524 -999 40 17.4 101680 48
2011-08-17 09:03 51°20.759 3°2.546 2.8 24 17.5 101680 48
2011-08-17 09:04 51°20.765 3°2.52 3.7 29 17.5 101680 48
2011-08-17 09:05 51°20.767 3°2.488 3.3 22 17.4 101680 48
2011-08-17 09:06 51°20.766 3°2.455 3.4 28 17.4 101680 48
2011-08-17 09:07 51°20.781 3°2.451 1 37 17.4 101680 48
2011-08-17 09:08 51°20.811 3°2.598 1.4 342 17.5 101680 48
2011-08-17 09:09 51°20.877 3°2.847 2.4 335 17.5 101680 48
2011-08-17 09:10 51°20.947 3°3.105 2.8 333 17.5 101680 49
2011-08-17 09:11 51°20.996 3°3.378 2.8 333 17.6 101680 48
2011-08-17 09:12 51°21.054 3°3.644 3.1 334 17.6 101680 49
2011-08-17 09:13 51°21.108 3°3.912 2.5 327 17.6 101680 49
2011-08-17 09:14 51°21.171 3°4.174 3 334 17.7 101670 48
2011-08-17 09:15 51°21.232 3°4.437 2.3 334 17.7 101670 48
2011-08-17 09:16 51°21.282 3°4.708 3.3 333 17.8 101680 48
2011-08-17 09:17 51°21.331 3°4.984 2.5 332 17.8 101670 48
2011-08-17 09:18 51°21.4 3°5.254 3 334 17.7 101670 48
2011-08-17 09:19 51°21.47 3°5.525 3.3 329 17.7 101670 48
2011-08-17 09:20 51°21.54 3°5.798 3.1 324 17.8 101670 49
2011-08-17 09:21 51°21.599 3°6.081 2.9 330 17.8 101670 49
2011-08-17 09:22 51°21.665 3°6.357 2.7 336 17.8 101670 49
2011-08-17 09:23 51°21.743 3°6.623 3 336 17.8 101680 48
2011-08-17 09:24 51°21.814 3°6.892 3.3 333 17.8 101670 49
2011-08-17 09:25 51°21.876 3°7.167 2.6 335 17.9 101680 48
2011-08-17 09:26 51°21.939 3°7.438 2.7 329 17.8 101670 48
2011-08-17 09:27 51°21.988 3°7.718 2.9 335 17.9 101670 49
2011-08-17 09:28 51°22.048 3°7.992 2.8 327 17.8 101670 48
2011-08-17 09:29 51°22.086 3°8.275 2.7 338 17.8 101670 48
2011-08-17 09:30 51°22.1 3°8.568 2 338 17.9 101660 49
2011-08-17 09:31 51°22.129 3°8.857 3.2 334 17.8 101670 49
2011-08-17 09:31 51°22.161 3°9.138 2.7 330 17.9 101670 49
2011-08-17 09:33 51°22.194 3°9.432 2.6 333 17.8 101670 48
2011-08-17 09:34 51°22.227 3°9.72 2.9 331 17.8 101670 48
2011-08-17 09:35 51°22.238 3°10.016 2.8 335 17.9 101680 48
2011-08-17 09:36 51°22.251 3°10.311 3.1 334 17.8 101680 49
2011-08-17 09:37 51°22.278 3°10.608 2.7 331 17.9 101680 49
2011-08-17 09:38 51°22.298 3°10.911 2.8 333 17.9 101680 48
2011-08-17 09:39 51°22.317 3°11.209 3 334 17.9 101680 49
2011-08-17 09:40 51°22.347 3°11.506 3.3 333 17.9 101680 49
2011-08-17 09:41 51°22.385 3°11.805 3.2 335 17.9 101680 48
2011-08-17 09:42 51°22.41 3°12.108 3.1 333 17.9 101680 48
2011-08-17 09:43 51°22.44 3°12.408 2.9 332 17.8 101670 48
2011-08-17 09:44 51°22.475 3°12.706 3.2 331 17.9 101680 48
2011-08-17 09:45 51°22.495 3°12.957 -999 335 17.9 101680 48
2011-08-17 09:46 51°22.509 3°13.092 -999 259 18.1 101680 49
2011-08-17 09:47 51°22.534 3°13.196 -999 263 18.3 101680 49
2011-08-17 09:48 51°22.569 3°13.272 3.6 256 18.4 101680 49
2011-08-17 09:49 51°22.616 3°13.266 2.7 252 18.5 101680 48
2011-08-17 09:50 51°22.638 3°13.245 2.9 258 18.5 101680 48
2011-08-17 09:51 51°22.653 3°13.221 3.8 261 18.6 101680 49
2011-08-17 09:52 51°22.663 3°13.197 2.2 264 18.6 101680 48
2011-08-17 09:53 51°22.672 3°13.173 3.3 257 18.6 101690 48
2011-08-17 09:54 51°22.679 3°13.148 3 259 18.7 101680 48
2011-08-17 09:55 51°22.684 3°13.124 2.9 256 18.7 101690 48
2011-08-17 09:56 51°22.688 3°13.1 2.3 254 18.6 101690 47
2011-08-17 09:56 51°22.69 3°13.076 2.6 255 18.6 101690 47
2011-08-17 09:58 51°22.691 3°13.051 2.9 253 18.7 101680 47
2011-08-17 09:59 51°22.692 3°13.028 2.7 254 18.7 101690 47
2011-08-17 10:00 51°22.693 3°13.006 2.3 25 18.8 101690 47
2011-08-17 10:01 51°22.693 3°12.984 2.6 250 18.8 101690 48
2011-08-17 10:02 51°22.692 3°12.963 2.1 25 18.8 101680 48
2011-08-17 10:03 51°22.697 3°12.938 2.7 254 18.8 101690 47
2011-08-17 10:04 51°22.731 3°12.924 0.5 268 18.8 101690 47
2011-08-17 10:05 51°22.74 3°12.976 1.4 347 18.8 101690 47
2011-08-17 10:06 51°22.705 3°13.03 0.6 34 18.8 101690 47
2011-08-17 10:07 51°22.73 3°13.089 2.5 23 18.9 101690 47
2011-08-17 10:08 51°22.851 3°13.05 4.6 318 18.9 101680 47
2011-08-17 10:09 51°23.04 3°12.955 6.9 323 18.8 101680 47
2011-08-17 10:10 51°23.208 3°12.751 5.9 333 18.6 101680 46
2011-08-17 10:11 51°23.364 3°12.523 8.1 339 18.4 101680 46
2011-08-17 10:12 51°23.53 3°12.322 8.5 341 18.2 101680 47
2011-08-17 10:13 51°23.687 3°12.098 7.4 338 18.2 101690 47
2011-08-17 10:14 51°23.849 3°11.888 9.8 339 18.1 101690 46
2011-08-17 10:15 51°24 3°11.653 10.2 341 18 101690 46
2011-08-17 10:16 51°24.142 3°11.397 9.1 344 18 101680 45
2011-08-17 10:17 51°24.246 3°11.093 7.6 348 17.8 101680 46
2011-08-17 10:18 51°24.302 3°10.748 8.1 347 17.7 101680 46
2011-08-17 10:19 51°24.36 3°10.404 7.6 348 17.6 101680 45
2011-08-17 10:20 51°24.432 3°10.072 8.1 347 17.5 101690 46
2011-08-17 10:21 51°24.498 3°9.753 7.4 349 17.5 101690 45
2011-08-17 10:22 51°24.565 3°9.441 7.9 348 17.5 101680 46
2011-08-17 10:23 51°24.637 3°9.135 9.9 347 17.5 101680 45
2011-08-17 10:24 51°24.731 3°8.851 9.1 349 17.5 101680 45
2011-08-17 10:25 51°24.827 3°8.57 8.8 348 17.5 101680 45
2011-08-17 10:26 51°24.93 3°8.3 8.9 347 17.5 101680 45
2011-08-17 10:27 51°25.034 3°8.037 10.1 346 17.5 101680 45
2011-08-17 10:28 51°25.19 3°7.886 9.5 334 17.5 101690 45
2011-08-17 10:29 51°25.362 3°7.941 4.5 332 17.6 101690 45
2011-08-17 10:30 51°25.532 3°8.024 9.4 333 17.7 101680 46
2011-08-17 10:31 51°25.701 3°8.102 8.5 332 17.7 101680 45
2011-08-17 10:32 51°25.872 3°8.174 9.9 332 17.7 101680 44
2011-08-17 10:32 51°26.037 3°8.247 10.7 330 17.7 101680 44
2011-08-17 10:34 51°26.19 3°8.392 10.2 331 17.7 101680 43
2011-08-17 10:35 51°26.346 3°8.484 9.6 331 17.6 101680 43
2011-08-17 10:36 51°26.432 3°8.549 6.5 327 17.7 101690 43
2011-08-17 10:37 51°26.467 3°8.578 4.1 339 17.7 101690 42
2011-08-17 10:38 51°26.478 3°8.575 4.5 328 17.8 101690 43
2011-08-17 10:39 51°26.469 3°8.576 4.4 325 17.9 101690 43
2011-08-17 10:40 51°26.453 3°8.577 4 316 17.9 101690 44
2011-08-17 10:41 51°26.432 3°8.575 4.6 24 17.9 101690 43
2011-08-17 10:42 51°26.41 3°8.575 4 320 17.8 101680 43
2011-08-17 10:43 51°26.389 3°8.573 4.9 317 17.8 101680 43
2011-08-17 10:44 51°26.365 3°8.568 4.5 317 17.8 101690 42
2011-08-17 10:45 51°26.34 3°8.561 4.4 28 17.8 101690 42
2011-08-17 10:46 51°26.313 3°8.552 3.4 28 17.8 101690 43
2011-08-17 10:47 51°26.286 3°8.548 4.5 22 17.8 101690 43
2011-08-17 10:48 51°26.314 3°8.566 6.7 343 17.8 101690 42
2011-08-17 10:49 51°26.383 3°8.46 8.6 345 17.7 101680 42
2011-08-17 10:50 51°26.468 3°8.358 5.5 344 17.6 101680 43
2011-08-17 10:51 51°26.491 3°8.329 3.7 329 17.6 101690 43
2011-08-17 10:52 51°26.467 3°8.313 4.1 329 17.7 101690 42
2011-08-17 10:53 51°26.441 3°8.298 3.8 330 17.7 101690 43
2011-08-17 10:54 51°26.415 3°8.284 4 321 17.9 101690 42
2011-08-17 10:55 51°26.389 3°8.271 3.5 24 18 101690 42
2011-08-17 10:56 51°26.361 3°8.259 3.6 22 18 101690 42
2011-08-17 10:57 51°26.333 3°8.246 4.4 29 18.1 101700 42
2011-08-17 10:58 51°26.304 3°8.233 4.6 244 18.1 101690 41
2011-08-17 10:59 51°26.274 3°8.222 5 251 18.1 101700 42
2011-08-17 11:00 51°26.244 3°8.21 4.5 254 18.3 101700 42
2011-08-17 11:01 51°26.213 3°8.2 3.3 263 18.3 101690 41
2011-08-17 11:02 51°26.181 3°8.209 4.9 28 18.4 101700 42
2011-08-17 11:03 51°26.194 3°8.248 6 340 18.3 101680 41
2011-08-17 11:04 51°26.282 3°8.143 8.2 343 18.1 101680 41
2011-08-17 11:05 51°26.417 3°7.944 9.7 346 17.9 101680 42
2011-08-17 11:06 51°26.529 3°7.682 7.6 349 17.8 101680 42
2011-08-17 11:07 51°26.655 3°7.434 9.6 346 17.7 101680 44
2011-08-17 11:08 51°26.772 3°7.17 11.8 346 17.7 101680 43
2011-08-17 11:09 51°26.875 3°6.887 4.9 345 17.5 101680 44
2011-08-17 11:10 51°26.991 3°6.619 8 346 17.4 101680 44
2011-08-17 11:11 51°27.082 3°6.321 8.1 348 17.3 101690 44
2011-08-17 11:12 51°27.187 3°6.035 8.7 346 17.3 101690 44
2011-08-17 11:13 51°27.28 3°5.734 8.1 346 17.3 101690 44
2011-08-17 11:14 51°27.387 3°5.449 5.1 345 17.3 101690 44
2011-08-17 11:15 51°27.464 3°5.135 3.7 349 17.3 101700 43
2011-08-17 11:16 51°27.49 3°4.786 8.6 353 17.3 101700 43
2011-08-17 11:17 51°27.508 3°4.434 8.6 352 17.3 101700 44
2011-08-17 11:18 51°27.554 3°4.092 8.4 348 17.2 101700 43
2011-08-17 11:19 51°27.656 3°3.798 10.2 343 17.3 101690 43
2011-08-17 11:20 51°27.802 3°3.571 12.9 342 17.3 101690 43
2011-08-17 11:21 51°27.955 3°3.373 8.3 342 17.4 101690 43
2011-08-17 11:22 51°28.062 3°3.286 7.3 334 17.5 101700 42
2011-08-17 11:23 51°28.129 3°3.269 5.8 329 17.6 101700 42
2011-08-17 11:24 51°28.175 3°3.292 7.2 321 17.6 101700 42
2011-08-17 11:25 51°28.21 3°3.328 6.3 321 17.6 101700 42
2011-08-17 11:26 51°28.256 3°3.399 6.4 324 17.6 101690 42
2011-08-17 11:27 51°28.289 3°3.455 6 315 17.7 101690 42
2011-08-17 11:28 51°28.278 3°3.475 6 21 17.7 101700 42
2011-08-17 11:29 51°28.256 3°3.484 4.9 247 17.8 101700 42
2011-08-17 11:30 51°28.232 3°3.483 4.8 251 17.8 101710 41
2011-08-17 11:31 51°28.208 3°3.478 5.3 22 17.9 101700 41
2011-08-17 11:32 51°28.185 3°3.469 4.5 251 18 101700 40
2011-08-17 11:33 51°28.161 3°3.457 5.1 22 18 101700 41
2011-08-17 11:34 51°28.138 3°3.441 4.8 249 18 101700 40
2011-08-17 11:35 51°28.113 3°3.423 5.9 246 18.1 101700 40
2011-08-17 11:36 51°28.089 3°3.403 3.7 249 18.1 101700 40
2011-08-17 11:37 51°28.065 3°3.383 6.4 253 18.2 101700 41
2011-08-17 11:38 51°28.039 3°3.361 5.3 252 18.3 101700 41
2011-08-17 11:39 51°28.03 3°3.389 6 326 18.2 101690 40
2011-08-17 11:40 51°28.079 3°3.378 8.4 347 18.1 101680 41
2011-08-17 11:41 51°28.154 3°3.323 6.8 344 17.8 101680 41
2011-08-17 11:42 51°28.23 3°3.33 7 328 17.6 101680 41
2011-08-17 11:43 51°28.276 3°3.404 6.4 317 17.6 101670 41
2011-08-17 11:44 51°28.281 3°3.455 6 245 17.7 101670 41
2011-08-17 11:45 51°28.258 3°3.465 5.3 20 17.7 101680 42
2011-08-17 11:46 51°28.232 3°3.467 5.6 254 17.7 101680 42
2011-08-17 11:47 51°28.207 3°3.463 6.7 20 17.8 101680 42
2011-08-17 11:48 51°28.183 3°3.456 5.6 251 17.9 101680 41
2011-08-17 11:49 51°28.158 3°3.446 5.3 256 17.8 101680 40
2011-08-17 11:50 51°28.134 3°3.435 4.6 249 18 101680 42
2011-08-17 11:51 51°28.109 3°3.422 6 251 17.9 101680 41
2011-08-17 11:52 51°28.084 3°3.408 5.6 254 18 101690 42
2011-08-17 11:53 51°28.06 3°3.393 5.2 252 17.9 101680 41
2011-08-17 11:54 51°28.035 3°3.378 4.9 250 17.9 101680 41
2011-08-17 11:55 51°28.012 3°3.361 6.4 252 18 101680 42
2011-08-17 11:56 51°27.987 3°3.344 5.8 254 18 101680 42
2011-08-17 11:57 51°27.944 3°3.366 3.9 30 18 101680 41
2011-08-17 11:58 51°27.851 3°3.305 -999 30 17.9 101680 42
2011-08-17 11:59 51°27.679 3°3.104 -999 352 17.9 101670 41
2011-08-17 12:00 51°27.492 3°2.884 0.1 5 17.8 101670 41
2011-08-17 12:01 51°27.306 3°2.663 1.1 4 17.6 101670 42
2011-08-17 12:02 51°27.126 3°2.42 1.9 352 17.5 101660 41
2011-08-17 12:03 51°26.945 3°2.18 1.8 1 17.5 101660 42
2011-08-17 12:04 51°26.756 3°1.958 -999 355 17.4 101670 42
2011-08-17 12:05 51°26.56 3°1.753 -999 12 17.5 101660 44
2011-08-17 12:06 51°26.372 3°1.534 -999 354 17.5 101670 42
2011-08-17 12:07 51°26.183 3°1.323 2 3 17.5 101660 43
2011-08-17 12:08 51°26 3°1.1 -999 4 17.5 101670 43
2011-08-17 12:09 51°25.812 3°0.889 2 3 17.4 101670 44
2011-08-17 12:10 51°25.635 3°0.658 0.3 358 17.4 101670 42
2011-08-17 12:11 51°25.453 3°0.441 -999 352 17.5 101670 44
2011-08-17 12:12 51°25.277 3°0.211 -999 4 17.5 101670 43
2011-08-17 12:13 51°25.094 2°59.994 0.1 346 17.4 101670 43
2011-08-17 12:14 51°24.915 2°59.772 2.8 358 17.4 101670 43
2011-08-17 12:15 51°24.743 2°59.534 2.5 8 17.4 101670 43
2011-08-17 12:16 51°24.566 2°59.309 0.2 14 17.4 101670 43
2011-08-17 12:17 51°24.382 2°59.097 0.8 8 17.4 101670 44
2011-08-17 12:18 51°24.211 2°58.86 -999 14 17.4 101660 43
2011-08-17 12:19 51°24.035 2°58.632 1.6 -999 17.5 101660 44
2011-08-17 12:20 51°23.868 2°58.385 3.1 11 17.5 101670 44
2011-08-17 12:21 51°23.69 2°58.156 1.6 15 17.5 101670 44
2011-08-17 12:22 51°23.518 2°57.916 2.3 5 17.5 101670 44
2011-08-17 12:23 51°23.349 2°57.672 1.6 8 17.4 101670 43
2011-08-17 12:24 51°23.168 2°57.452 1.7 9 17.4 101670 44
2011-08-17 12:25 51°22.995 2°57.219 2.1 10 17.4 101670 43
2011-08-17 12:26 51°22.825 2°56.991 0.3 12 17.4 101660 43
2011-08-17 12:27 51°22.656 2°56.762 2.5 5 17.5 101670 44
2011-08-17 12:28 51°22.485 2°56.535 1 11 17.4 101660 42
2011-08-17 12:29 51°22.319 2°56.301 1.3 12 17.4 101650 43
2011-08-17 12:30 51°22.144 2°56.082 0.2 6 17.6 101650 44
2011-08-17 12:31 51°21.965 2°55.868 -999 15 17.5 101660 44
2011-08-17 12:32 51°21.794 2°55.638 1.1 4 17.5 101650 43
2011-08-17 12:33 51°21.618 2°55.422 0.1 2 17.4 101660 43
2011-08-17 12:34 51°21.45 2°55.191 -999 9 17.5 101650 44
2011-08-17 12:35 51°21.267 2°54.99 -999 11 17.5 101660 44
2011-08-17 12:36 51°21.083 2°54.79 -999 15 17.5 101650 44
2011-08-17 12:37 51°20.907 2°54.573 0.9 16 17.5 101650 43
2011-08-17 12:38 51°20.731 2°54.36 0.1 15 17.5 101650 43
2011-08-17 12:39 51°20.55 2°54.161 0.1 19 17.7 101650 44
2011-08-17 12:40 51°20.368 2°53.965 0.1 5 17.7 101650 43
2011-08-17 12:41 51°20.186 2°53.772 0.1 19 17.7 101650 44
2011-08-17 12:42 51°20.013 2°53.556 -999 22 17.8 101650 44
2011-08-17 12:43 51°19.841 2°53.336 0.1 19 17.9 101640 45
2011-08-17 12:44 51°19.661 2°53.139 1.3 16 17.9 101640 44
2011-08-17 12:45 51°19.488 2°52.926 2.3 17 17.8 101640 44
2011-08-17 12:46 51°19.316 2°52.709 0.2 22 17.7 101640 43
2011-08-17 12:47 51°19.136 2°52.509 0.5 23 17.7 101640 44
2011-08-17 12:48 51°18.967 2°52.287 0.1 29 17.8 101630 44
2011-08-17 12:49 51°18.788 2°52.093 -999 27 17.8 101630 44
2011-08-17 12:50 51°18.619 2°51.874 1.2 23 17.9 101630 44
2011-08-17 12:51 51°18.448 2°51.663 0.2 41 17.9 101630 44
2011-08-17 12:52 51°18.276 2°51.46 1.1 37 18 101630 44
2011-08-17 12:53 51°18.114 2°51.233 0.9 26 17.9 101630 43
2011-08-17 12:54 51°17.946 2°51.02 -999 38 17.9 101630 43
2011-08-17 12:55 51°17.774 2°50.818 0.2 18 18.1 101630 43
2011-08-17 12:56 51°17.618 2°50.587 1.1 25 18 101630 44
2011-08-17 12:57 51°17.45 2°50.384 0.3 29 18 101630 43
2011-08-17 12:58 51°17.288 2°50.176 1.4 27 18 101640 44
2011-08-17 12:59 51°17.137 2°49.954 1 27 18 101630 43
2011-08-17 13:00 51°16.983 2°49.74 1.1 27 18 101630 44
2011-08-17 13:01 51°16.818 2°49.547 0.2 39 18 101630 43
2011-08-17 13:02 51°16.657 2°49.345 0.2 33 17.9 101630 42
2011-08-17 13:03 51°16.492 2°49.154 0.7 42 18 101630 44
2011-08-17 13:04 51°16.336 2°48.952 0.2 29 17.9 101630 43
2011-08-17 13:05 51°16.173 2°48.768 -999 44 17.9 101630 43
2011-08-17 13:06 51°16.02 2°48.57 -999 29 17.9 101620 43
2011-08-17 13:07 51°15.867 2°48.377 -999 25 17.9 101620 43
2011-08-17 13:08 51°15.706 2°48.196 0.1 25 18 101620 43
2011-08-17 13:09 51°15.548 2°48.012 -999 30 18.2 101620 44
2011-08-17 13:10 51°15.397 2°47.815 0.6 24 18.3 101620 42
2011-08-17 13:11 51°15.24 2°47.632 -999 270 18.5 101610 44
2011-08-17 13:12 51°15.086 2°47.444 0.1 31 18.7 101610 43
2011-08-17 13:13 51°14.928 2°47.259 -999 340 18.9 101610 43
2011-08-17 13:14 51°14.765 2°47.084 -999 13 19.1 101600 43
2011-08-17 13:15 51°14.61 2°46.896 -999 26 19.2 101610 43
2011-08-17 13:16 51°14.457 2°46.706 -999 29 19.3 101600 43
2011-08-17 13:17 51°14.301 2°46.527 -999 26 19.2 101600 43
2011-08-17 13:18 51°14.153 2°46.341 -999 27 19.2 101600 42
2011-08-17 13:19 51°13.999 2°46.168 -999 25 19.1 101590 43
2011-08-17 13:20 51°13.857 2°45.972 -999 25 19.1 101590 43
2011-08-17 13:21 51°13.705 2°45.794 0.1 24 19.1 101600 43
2011-08-17 13:22 51°13.567 2°45.591 0.1 44 19 101590 43
2011-08-17 13:23 51°13.42 2°45.401 -999 25 18.8 101580 42
2011-08-17 13:24 51°13.28 2°45.201 0.4 44 18.6 101580 43
2011-08-17 13:25 51°13.134 2°45.013 -999 25 18.5 101580 43
2011-08-17 13:26 51°12.995 2°44.816 -999 25 18.6 101580 42
2011-08-17 13:27 51°12.853 2°44.622 0.7 37 18.5 101580 44
2011-08-17 13:28 51°12.709 2°44.434 -999 43 18.4 101580 43
2011-08-17 13:29 51°12.571 2°44.238 0.2 35 18.3 101580 43
2011-08-17 13:30 51°12.432 2°44.041 -999 42 18.2 101570 44
2011-08-17 13:31 51°12.286 2°43.856 -999 25 18.1 101570 44
2011-08-17 13:32 51°12.148 2°43.661 2.4 44 18.1 101570 44
2011-08-17 13:33 51°12.005 2°43.471 0.1 43 18.1 101570 45
2011-08-17 13:34 51°11.862 2°43.281 0.1 40 18.1 101570 44
2011-08-17 13:35 51°11.715 2°43.099 -999 25 18 101570 44
2011-08-17 13:36 51°11.558 2°42.93 0.3 43 18 101570 45
2011-08-17 13:37 51°11.407 2°42.749 -999 43 18.1 101570 45
2011-08-17 13:38 51°11.25 2°42.576 0.1 22 18.1 101570 45
2011-08-17 13:39 51°11.097 2°42.419 1 23 18 101570 45
2011-08-17 13:40 51°11.055 2°42.309 6.2 39 17.9 101560 44
2011-08-17 13:41 51°11.046 2°42.217 7.2 25 17.9 101570 46
2011-08-17 13:42 51°11.066 2°42.151 8.5 29 17.8 101560 44
2011-08-17 13:43 51°11.072 2°42.087 8.7 20 17.7 101560 45
2011-08-17 13:44 51°11.092 2°42.075 10.1 17 17.7 101550 45
2011-08-17 13:45 51°11.106 2°42.088 6.9 12 17.6 101560 46
2011-08-17 13:46 51°11.119 2°42.107 10.1 9 17.6 101560 46
2011-08-17 13:47 51°11.128 2°42.129 5.9 5 17.5 101560 45
2011-08-17 13:48 51°11.134 2°42.15 7.2 10 17.4 101560 45
2011-08-17 13:49 51°11.139 2°42.174 6.5 11 17.5 101560 46
2011-08-17 13:50 51°11.143 2°42.197 9.5 14 17.5 101570 46
2011-08-17 13:51 51°11.144 2°42.221 7.2 19 17.5 101570 45
2011-08-17 13:52 51°11.144 2°42.245 8.4 23 17.4 101560 45
2011-08-17 13:53 51°11.146 2°42.27 8.9 28 17.5 101570 45
2011-08-17 13:54 51°11.148 2°42.296 7.3 30 17.5 101570 46
2011-08-17 13:55 51°11.149 2°42.321 8.4 23 17.6 101570 46
2011-08-17 13:56 51°11.155 2°42.303 5.8 32 17.5 101570 45
2011-08-17 13:57 51°11.124 2°42.228 6 40 17.4 101570 43
2011-08-17 13:58 51°11.086 2°42.116 4.5 42 17.4 101570 45
2011-08-17 13:59 51°11.023 2°42.106 7 261 17.4 101580 44
2011-08-17 14:00 51°11.006 2°42.24 11.9 21 17.6 101560 45
2011-08-17 14:01 51°11.054 2°42.488 12.4 28 17.6 101520 44
2011-08-17 14:02 51°11.117 2°42.837 11.6 322 17.6 101520 45
2011-08-17 14:03 51°11.191 2°43.188 14.1 316 17.7 101510 44
2011-08-17 14:04 51°11.251 2°43.546 12.6 317 17.7 101520 44
2011-08-17 14:05 51°11.331 2°43.895 12 318 17.8 101510 44
2011-08-17 14:06 51°11.397 2°44.246 13 319 17.8 101510 45
2011-08-17 14:07 51°11.478 2°44.588 17.1 320 17.8 101510 44
2011-08-17 14:08 51°11.557 2°44.933 13.5 320 17.8 101520 43
2011-08-17 14:09 51°11.624 2°45.284 14.2 319 17.8 101520 44
2011-08-17 14:10 51°11.693 2°45.633 17.5 318 17.8 101510 43
2011-08-17 14:11 51°11.774 2°45.975 12 321 17.8 101520 43
2011-08-17 14:12 51°11.848 2°46.324 16 315 17.8 101520 43
2011-08-17 14:13 51°11.921 2°46.674 13.6 317 17.8 101520 44
2011-08-17 14:14 51°12.009 2°47.013 12.4 317 17.8 101510 44
2011-08-17 14:15 51°12.098 2°47.353 14.8 320 17.8 101520 44
2011-08-17 14:16 51°12.179 2°47.696 11.5 321 17.8 101520 44
2011-08-17 14:17 51°12.266 2°48.035 14 318 17.8 101510 44
2011-08-17 14:18 51°12.36 2°48.368 13 321 17.8 101520 43
2011-08-17 14:19 51°12.461 2°48.695 14.2 320 17.9 101510 44
2011-08-17 14:20 51°12.561 2°49.022 15.2 322 17.8 101520 43
2011-08-17 14:21 51°12.664 2°49.349 4.4 321 17.9 101520 44
2011-08-17 14:22 51°12.76 2°49.68 15.1 322 17.8 101510 43
2011-08-17 14:23 51°12.877 2°49.994 11.9 324 17.8 101520 43
2011-08-17 14:24 51°12.984 2°50.318 14.7 323 17.8 101520 43
2011-08-17 14:25 51°13.098 2°50.634 14.7 324 17.7 101520 43
2011-08-17 14:26 51°13.213 2°50.952 15 323 17.8 101530 44
2011-08-17 14:27 51°13.323 2°51.275 7 323 17.8 101530 43
2011-08-17 14:28 51°13.434 2°51.595 7.2 321 17.8 101530 43
2011-08-17 14:29 51°13.546 2°51.915 11.9 322 17.7 101530 43
2011-08-17 14:30 51°13.658 2°52.231 11.6 319 17.8 101540 43
2011-08-17 14:31 51°13.771 2°52.547 14.3 325 17.8 101550 44
2011-08-17 14:32 51°13.88 2°52.866 6.3 325 17.8 101530 43
2011-08-17 14:33 51°13.998 2°53.179 13.5 324 17.8 101530 43
2011-08-17 14:34 51°14.109 2°53.499 17 325 17.8 101540 43
2011-08-17 14:35 51°14.243 2°53.797 10.9 326 17.8 101540 43
2011-08-17 14:36 51°14.372 2°54.094 13.8 325 17.8 101530 44
2011-08-17 14:37 51°14.5 2°54.395 7 326 17.7 101530 43
2011-08-17 14:38 51°14.611 2°54.707 11 25 17.7 101540 43
2011-08-17 14:39 51°14.526 2°55.002 8 26 17.7 101560 44
2011-08-17 14:40 51°14.361 2°55.191 8.4 24 17.7 101580 44
2011-08-17 14:41 51°14.206 2°55.347 6.3 249 17.7 101580 44
2011-08-17 14:42 51°14.081 2°55.442 5 263 17.7 101600 43
2011-08-17 14:43 51°13.989 2°55.505 5.2 263 17.8 101590 43
2011-08-17 14:44 51°13.903 2°55.565 5.2 248 17.7 101600 43
2011-08-17 14:45 51°13.819 2°55.627 4.2 260 17.8 101590 42
2011-08-17 14:46 51°13.75 2°55.716 6.2 259 17.8 101590 42
2011-08-17 14:47 51°13.691 2°55.82 5.5 26 17.9 101590 42
2011-08-17 14:48 51°13.653 2°55.905 6.9 252 17.9 101590 41
2011-08-17 14:49 51°13.639 2°55.979 6.7 25 18 101590 40
2011-08-17 14:50 51°13.635 2°56.014 8.6 249 18 101600 40